sensor_id;sensor_type;location;lat;lon;timestamp;temperature;humidity
41944;DHT22;27636;52.610;13.244;2022-07-06T00:00:50;15.30;99.90
41944;DHT22;27636;52.610;13.244;2022-07-06T00:05:56;15.10;99.90
41944;DHT22;27636;52.610;13.244;2022-07-06T00:10:59;15.20;99.90
41944;DHT22;27636;52.610;13.244;2022-07-06T00:16:03;15.00;99.90
41944;DHT22;27636;52.610;13.244;2022-07-06T00:21:07;14.80;99.90
41944;DHT22;27636;52.610;13.244;2022-07-06T00:26:11;14.60;99.90
41944;DHT22;27636;52.610;13.244;2022-07-06T00:31:14;14.50;99.90
41944;DHT22;27636;52.610;13.244;2022-07-06T00:36:18;14.30;99.90
41944;DHT22;27636;52.610;13.244;2022-07-06T00:41:22;14.20;99.90
41944;DHT22;27636;52.610;13.244;2022-07-06T00:46:28;14.10;99.90
41944;DHT22;27636;52.610;13.244;2022-07-06T00:51:36;14.20;99.90
41944;DHT22;27636;52.610;13.244;2022-07-06T00:56:40;14.20;99.90
41944;DHT22;27636;52.610;13.244;2022-07-06T01:01:44;14.40;99.90
41944;DHT22;27636;52.610;13.244;2022-07-06T01:06:49;14.40;99.90
41944;DHT22;27636;52.610;13.244;2022-07-06T01:11:52;14.50;99.90
41944;DHT22;27636;52.610;13.244;2022-07-06T01:16:56;14.60;99.90
41944;DHT22;27636;52.610;13.244;2022-07-06T01:22:02;14.80;99.90
41944;DHT22;27636;52.610;13.244;2022-07-06T01:27:05;14.70;99.90
41944;DHT22;27636;52.610;13.244;2022-07-06T01:32:08;14.90;99.90
41944;DHT22;27636;52.610;13.244;2022-07-06T01:37:13;14.90;99.90
41944;DHT22;27636;52.610;13.244;2022-07-06T01:42:16;15.10;99.90
41944;DHT22;27636;52.610;13.244;2022-07-06T01:47:20;15.00;99.90
41944;DHT22;27636;52.610;13.244;2022-07-06T01:52:28;15.20;99.90
41944;DHT22;27636;52.610;13.244;2022-07-06T01:57:33;15.20;99.90
41944;DHT22;27636;52.610;13.244;2022-07-06T02:02:36;15.30;99.90
41944;DHT22;27636;52.610;13.244;2022-07-06T02:07:41;15.30;99.90
41944;DHT22;27636;52.610;13.244;2022-07-06T02:12:46;15.50;99.90
41944;DHT22;27636;52.610;13.244;2022-07-06T02:17:50;15.80;99.90
41944;DHT22;27636;52.610;13.244;2022-07-06T02:22:54;15.90;99.90
41944;DHT22;27636;52.610;13.244;2022-07-06T02:27:58;16.00;99.90
41944;DHT22;27636;52.610;13.244;2022-07-06T02:33:01;15.90;99.90
41944;DHT22;27636;52.610;13.244;2022-07-06T02:38:06;15.90;99.90
41944;DHT22;27636;52.610;13.244;2022-07-06T02:43:09;15.80;99.90
41944;DHT22;27636;52.610;13.244;2022-07-06T02:48:15;15.40;99.90
41944;DHT22;27636;52.610;13.244;2022-07-06T02:53:20;15.20;99.90
41944;DHT22;27636;52.610;13.244;2022-07-06T02:58:27;15.00;99.90
41944;DHT22;27636;52.610;13.244;2022-07-06T03:03:31;15.00;99.90
41944;DHT22;27636;52.610;13.244;2022-07-06T03:08:37;15.00;99.90
41944;DHT22;27636;52.610;13.244;2022-07-06T03:13:41;15.10;99.90
41944;DHT22;27636;52.610;13.244;2022-07-06T03:18:46;15.10;99.90
41944;DHT22;27636;52.610;13.244;2022-07-06T03:23:54;15.10;99.90
41944;DHT22;27636;52.610;13.244;2022-07-06T03:28:57;15.10;99.90
41944;DHT22;27636;52.610;13.244;2022-07-06T03:34:01;15.10;99.90
41944;DHT22;27636;52.610;13.244;2022-07-06T03:39:06;15.00;99.90
41944;DHT22;27636;52.610;13.244;2022-07-06T03:44:12;14.80;99.90
41944;DHT22;27636;52.610;13.244;2022-07-06T03:49:15;15.00;99.90
41944;DHT22;27636;52.610;13.244;2022-07-06T03:54:22;15.30;99.90
41944;DHT22;27636;52.610;13.244;2022-07-06T03:59:25;15.50;99.90
41944;DHT22;27636;52.610;13.244;2022-07-06T04:04:30;15.60;99.90
41944;DHT22;27636;52.610;13.244;2022-07-06T04:09:35;15.80;99.90
41944;DHT22;27636;52.610;13.244;2022-07-06T04:14:39;15.90;99.90
41944;DHT22;27636;52.610;13.244;2022-07-06T04:19:42;15.80;99.90
41944;DHT22;27636;52.610;13.244;2022-07-06T04:24:46;15.70;99.90
41944;DHT22;27636;52.610;13.244;2022-07-06T04:29:50;15.90;99.90
41944;DHT22;27636;52.610;13.244;2022-07-06T04:34:54;15.90;99.90
41944;DHT22;27636;52.610;13.244;2022-07-06T04:39:59;16.10;99.90
41944;DHT22;27636;52.610;13.244;2022-07-06T04:45:03;16.40;99.90
41944;DHT22;27636;52.610;13.244;2022-07-06T04:50:07;16.50;99.90
41944;DHT22;27636;52.610;13.244;2022-07-06T04:55:13;16.50;99.90
41944;DHT22;27636;52.610;13.244;2022-07-06T05:00:18;17.40;99.90
41944;DHT22;27636;52.610;13.244;2022-07-06T05:05:24;19.40;99.90
41944;DHT22;27636;52.610;13.244;2022-07-06T05:10:29;21.70;93.50
41944;DHT22;27636;52.610;13.244;2022-07-06T05:15:35;22.60;83.60
41944;DHT22;27636;52.610;13.244;2022-07-06T05:20:38;24.10;76.10
41944;DHT22;27636;52.610;13.244;2022-07-06T05:25:43;24.60;71.30
41944;DHT22;27636;52.610;13.244;2022-07-06T05:30:46;24.70;70.10
41944;DHT22;27636;52.610;13.244;2022-07-06T05:35:50;25.70;63.60
41944;DHT22;27636;52.610;13.244;2022-07-06T05:41:00;25.30;64.00
41944;DHT22;27636;52.610;13.244;2022-07-06T05:46:03;25.80;63.40
41944;DHT22;27636;52.610;13.244;2022-07-06T05:51:09;27.30;60.00
41944;DHT22;27636;52.610;13.244;2022-07-06T05:56:17;27.10;58.10
41944;DHT22;27636;52.610;13.244;2022-07-06T06:01:21;25.90;60.10
41944;DHT22;27636;52.610;13.244;2022-07-06T06:06:36;26.20;60.00
41944;DHT22;27636;52.610;13.244;2022-07-06T06:11:41;27.30;58.80
41944;DHT22;27636;52.610;13.244;2022-07-06T06:16:45;27.50;58.10
41944;DHT22;27636;52.610;13.244;2022-07-06T06:21:48;26.90;58.00
41944;DHT22;27636;52.610;13.244;2022-07-06T06:26:53;27.60;58.70
41944;DHT22;27636;52.610;13.244;2022-07-06T06:31:56;27.30;56.80
41944;DHT22;27636;52.610;13.244;2022-07-06T06:36:59;26.40;59.10
41944;DHT22;27636;52.610;13.244;2022-07-06T06:42:05;25.90;58.80
41944;DHT22;27636;52.610;13.244;2022-07-06T06:47:10;24.10;65.10
41944;DHT22;27636;52.610;13.244;2022-07-06T06:52:14;23.20;69.30
41944;DHT22;27636;52.610;13.244;2022-07-06T06:57:38;24.20;64.80
41944;DHT22;27636;52.610;13.244;2022-07-06T07:02:42;24.70;64.00
41944;DHT22;27636;52.610;13.244;2022-07-06T07:07:47;25.80;58.60
41944;DHT22;27636;52.610;13.244;2022-07-06T07:12:52;25.00;60.00
41944;DHT22;27636;52.610;13.244;2022-07-06T07:17:56;25.40;60.40
41944;DHT22;27636;52.610;13.244;2022-07-06T07:23:00;25.20;59.60
41944;DHT22;27636;52.610;13.244;2022-07-06T07:28:05;25.70;57.20
41944;DHT22;27636;52.610;13.244;2022-07-06T07:33:08;24.30;58.70
41944;DHT22;27636;52.610;13.244;2022-07-06T07:38:12;22.90;63.30
41944;DHT22;27636;52.610;13.244;2022-07-06T07:43:16;21.40;68.10
41944;DHT22;27636;52.610;13.244;2022-07-06T07:48:20;22.60;65.50
41944;DHT22;27636;52.610;13.244;2022-07-06T07:53:24;25.10;59.30
41944;DHT22;27636;52.610;13.244;2022-07-06T07:58:28;26.40;57.00
41944;DHT22;27636;52.610;13.244;2022-07-06T08:03:33;25.00;58.40
41944;DHT22;27636;52.610;13.244;2022-07-06T08:08:37;23.90;60.70
41944;DHT22;27636;52.610;13.244;2022-07-06T08:13:41;24.20;60.10
41944;DHT22;27636;52.610;13.244;2022-07-06T08:18:44;25.80;55.10
41944;DHT22;27636;52.610;13.244;2022-07-06T08:23:47;24.80;57.70
41944;DHT22;27636;52.610;13.244;2022-07-06T08:28:52;22.50;59.50
41944;DHT22;27636;52.610;13.244;2022-07-06T08:33:55;21.20;65.00
41944;DHT22;27636;52.610;13.244;2022-07-06T08:38:59;21.00;66.80
41944;DHT22;27636;52.610;13.244;2022-07-06T08:44:04;21.30;69.00
41944;DHT22;27636;52.610;13.244;2022-07-06T08:49:09;21.70;68.80
41944;DHT22;27636;52.610;13.244;2022-07-06T08:54:15;22.70;63.00
41944;DHT22;27636;52.610;13.244;2022-07-06T08:59:20;23.20;59.10
41944;DHT22;27636;52.610;13.244;2022-07-06T09:04:24;24.00;60.40
41944;DHT22;27636;52.610;13.244;2022-07-06T09:09:29;25.40;54.80
41944;DHT22;27636;52.610;13.244;2022-07-06T09:14:35;25.40;54.20
41944;DHT22;27636;52.610;13.244;2022-07-06T09:19:38;22.80;57.50
41944;DHT22;27636;52.610;13.244;2022-07-06T09:24:41;21.60;62.40
41944;DHT22;27636;52.610;13.244;2022-07-06T09:29:47;21.60;62.60
41944;DHT22;27636;52.610;13.244;2022-07-06T09:34:50;21.90;63.80
41944;DHT22;27636;52.610;13.244;2022-07-06T09:39:53;22.20;62.20
41944;DHT22;27636;52.610;13.244;2022-07-06T09:44:57;22.10;61.90
41944;DHT22;27636;52.610;13.244;2022-07-06T09:50:01;21.60;65.20
41944;DHT22;27636;52.610;13.244;2022-07-06T09:55:08;21.10;66.10
41944;DHT22;27636;52.610;13.244;2022-07-06T10:00:18;20.50;68.10
41944;DHT22;27636;52.610;13.244;2022-07-06T10:05:32;20.50;69.20
41944;DHT22;27636;52.610;13.244;2022-07-06T10:10:38;20.60;71.70
41944;DHT22;27636;52.610;13.244;2022-07-06T10:15:43;20.80;70.60
41944;DHT22;27636;52.610;13.244;2022-07-06T10:20:48;21.70;70.10
41944;DHT22;27636;52.610;13.244;2022-07-06T10:25:51;23.00;63.40
41944;DHT22;27636;52.610;13.244;2022-07-06T10:30:56;23.80;61.50
41944;DHT22;27636;52.610;13.244;2022-07-06T10:35:59;24.80;58.10
41944;DHT22;27636;52.610;13.244;2022-07-06T10:41:04;24.40;57.90
41944;DHT22;27636;52.610;13.244;2022-07-06T10:46:10;25.50;54.50
41944;DHT22;27636;52.610;13.244;2022-07-06T10:51:22;24.50;54.80
41944;DHT22;27636;52.610;13.244;2022-07-06T10:56:32;24.30;57.20
41944;DHT22;27636;52.610;13.244;2022-07-06T11:02:12;23.30;59.10
41944;DHT22;27636;52.610;13.244;2022-07-06T11:07:18;21.70;61.80
41944;DHT22;27636;52.610;13.244;2022-07-06T11:12:22;21.40;63.90
41944;DHT22;27636;52.610;13.244;2022-07-06T11:17:30;21.30;66.50
41944;DHT22;27636;52.610;13.244;2022-07-06T11:22:36;21.10;67.00
41944;DHT22;27636;52.610;13.244;2022-07-06T11:27:39;21.20;66.90
41944;DHT22;27636;52.610;13.244;2022-07-06T11:32:45;21.60;68.70
41944;DHT22;27636;52.610;13.244;2022-07-06T11:37:48;22.80;64.60
41944;DHT22;27636;52.610;13.244;2022-07-06T11:42:54;24.10;59.30
41944;DHT22;27636;52.610;13.244;2022-07-06T11:48:11;24.30;57.00
41944;DHT22;27636;52.610;13.244;2022-07-06T11:53:15;22.80;60.00
41944;DHT22;27636;52.610;13.244;2022-07-06T11:58:21;21.70;63.30
41944;DHT22;27636;52.610;13.244;2022-07-06T12:03:29;21.70;64.50
41944;DHT22;27636;52.610;13.244;2022-07-06T12:08:41;22.40;64.60
41944;DHT22;27636;52.610;13.244;2022-07-06T12:13:46;23.60;59.30
41944;DHT22;27636;52.610;13.244;2022-07-06T12:18:51;24.60;58.60
41944;DHT22;27636;52.610;13.244;2022-07-06T12:23:54;24.90;56.90
41944;DHT22;27636;52.610;13.244;2022-07-06T12:29:03;24.40;58.00
41944;DHT22;27636;52.610;13.244;2022-07-06T12:34:14;24.70;54.40
41944;DHT22;27636;52.610;13.244;2022-07-06T12:39:19;24.70;55.60
41944;DHT22;27636;52.610;13.244;2022-07-06T12:44:24;24.80;57.30
41944;DHT22;27636;52.610;13.244;2022-07-06T12:49:28;24.80;57.30
41944;DHT22;27636;52.610;13.244;2022-07-06T12:54:34;24.70;54.70
41944;DHT22;27636;52.610;13.244;2022-07-06T12:59:40;24.70;55.90
41944;DHT22;27636;52.610;13.244;2022-07-06T13:04:55;24.20;55.50
41944;DHT22;27636;52.610;13.244;2022-07-06T13:09:58;23.80;57.30
41944;DHT22;27636;52.610;13.244;2022-07-06T13:15:02;24.60;53.50
41944;DHT22;27636;52.610;13.244;2022-07-06T13:20:09;25.70;51.60
41944;DHT22;27636;52.610;13.244;2022-07-06T13:25:12;25.70;51.40
41944;DHT22;27636;52.610;13.244;2022-07-06T13:30:16;24.70;52.20
41944;DHT22;27636;52.610;13.244;2022-07-06T13:35:20;24.20;55.30
41944;DHT22;27636;52.610;13.244;2022-07-06T13:40:23;23.60;55.10
41944;DHT22;27636;52.610;13.244;2022-07-06T13:45:27;24.00;54.70
41944;DHT22;27636;52.610;13.244;2022-07-06T13:50:31;24.40;51.30
41944;DHT22;27636;52.610;13.244;2022-07-06T13:55:35;23.80;52.60
41944;DHT22;27636;52.610;13.244;2022-07-06T14:00:38;23.50;54.30
41944;DHT22;27636;52.610;13.244;2022-07-06T14:05:43;24.00;53.90
41944;DHT22;27636;52.610;13.244;2022-07-06T14:10:46;23.40;54.20
41944;DHT22;27636;52.610;13.244;2022-07-06T14:15:50;23.00;56.30
41944;DHT22;27636;52.610;13.244;2022-07-06T14:20:55;23.00;58.70
41944;DHT22;27636;52.610;13.244;2022-07-06T14:25:58;22.20;59.30
41944;DHT22;27636;52.610;13.244;2022-07-06T14:31:01;22.40;60.20
41944;DHT22;27636;52.610;13.244;2022-07-06T14:36:07;22.10;60.80
41944;DHT22;27636;52.610;13.244;2022-07-06T14:41:10;21.30;61.60
41944;DHT22;27636;52.610;13.244;2022-07-06T14:46:14;20.80;64.50
41944;DHT22;27636;52.610;13.244;2022-07-06T14:51:19;20.50;67.00
41944;DHT22;27636;52.610;13.244;2022-07-06T14:56:22;20.40;68.00
41944;DHT22;27636;52.610;13.244;2022-07-06T15:01:26;20.10;69.60
41944;DHT22;27636;52.610;13.244;2022-07-06T15:06:30;19.90;69.10
41944;DHT22;27636;52.610;13.244;2022-07-06T15:11:53;19.70;68.90
41944;DHT22;27636;52.610;13.244;2022-07-06T15:16:57;19.80;68.70
41944;DHT22;27636;52.610;13.244;2022-07-06T15:22:03;19.80;70.00
41944;DHT22;27636;52.610;13.244;2022-07-06T15:27:06;20.00;68.70
41944;DHT22;27636;52.610;13.244;2022-07-06T15:32:09;20.40;68.80
41944;DHT22;27636;52.610;13.244;2022-07-06T15:37:14;20.80;66.80
41944;DHT22;27636;52.610;13.244;2022-07-06T15:42:18;21.00;66.40
41944;DHT22;27636;52.610;13.244;2022-07-06T15:47:21;21.00;65.70
41944;DHT22;27636;52.610;13.244;2022-07-06T15:52:28;21.30;64.20
41944;DHT22;27636;52.610;13.244;2022-07-06T15:57:31;21.60;62.70
41944;DHT22;27636;52.610;13.244;2022-07-06T16:02:34;21.40;62.10
41944;DHT22;27636;52.610;13.244;2022-07-06T16:07:39;21.70;61.50
41944;DHT22;27636;52.610;13.244;2022-07-06T16:13:02;21.60;62.00
41944;DHT22;27636;52.610;13.244;2022-07-06T16:18:05;21.30;62.90
41944;DHT22;27636;52.610;13.244;2022-07-06T16:23:10;21.20;64.10
41944;DHT22;27636;52.610;13.244;2022-07-06T16:28:13;21.00;62.30
41944;DHT22;27636;52.610;13.244;2022-07-06T16:33:17;20.80;61.70
41944;DHT22;27636;52.610;13.244;2022-07-06T16:38:22;20.60;60.80
41944;DHT22;27636;52.610;13.244;2022-07-06T16:43:25;20.70;63.20
41944;DHT22;27636;52.610;13.244;2022-07-06T16:48:29;20.70;62.60
41944;DHT22;27636;52.610;13.244;2022-07-06T16:53:34;20.80;64.40
41944;DHT22;27636;52.610;13.244;2022-07-06T16:58:37;20.70;65.60
41944;DHT22;27636;52.610;13.244;2022-07-06T17:03:41;20.50;66.80
41944;DHT22;27636;52.610;13.244;2022-07-06T17:08:46;20.90;66.30
41944;DHT22;27636;52.610;13.244;2022-07-06T17:13:49;20.90;66.30
41944;DHT22;27636;52.610;13.244;2022-07-06T17:18:53;20.90;67.00
41944;DHT22;27636;52.610;13.244;2022-07-06T17:23:58;20.70;66.60
41944;DHT22;27636;52.610;13.244;2022-07-06T17:29:01;20.50;67.00
41944;DHT22;27636;52.610;13.244;2022-07-06T17:34:04;20.40;68.00
41944;DHT22;27636;52.610;13.244;2022-07-06T17:39:10;20.10;69.00
41944;DHT22;27636;52.610;13.244;2022-07-06T17:44:14;19.90;69.80
41944;DHT22;27636;52.610;13.244;2022-07-06T17:49:17;19.50;71.40
41944;DHT22;27636;52.610;13.244;2022-07-06T17:54:23;19.60;72.70
41944;DHT22;27636;52.610;13.244;2022-07-06T17:59:27;19.60;74.30
41944;DHT22;27636;52.610;13.244;2022-07-06T18:04:32;19.40;72.90
41944;DHT22;27636;52.610;13.244;2022-07-06T18:09:37;19.20;74.20
41944;DHT22;27636;52.610;13.244;2022-07-06T18:14:40;19.30;74.00
41944;DHT22;27636;52.610;13.244;2022-07-06T18:19:44;19.00;70.30
41944;DHT22;27636;52.610;13.244;2022-07-06T18:24:49;18.90;70.90
41944;DHT22;27636;52.610;13.244;2022-07-06T18:29:53;18.80;70.20
41944;DHT22;27636;52.610;13.244;2022-07-06T18:34:58;18.70;70.20
41944;DHT22;27636;52.610;13.244;2022-07-06T18:40:06;18.60;70.20
41944;DHT22;27636;52.610;13.244;2022-07-06T18:45:10;18.60;69.10
41944;DHT22;27636;52.610;13.244;2022-07-06T18:50:13;18.40;72.40
41944;DHT22;27636;52.610;13.244;2022-07-06T18:55:19;18.50;72.90
41944;DHT22;27636;52.610;13.244;2022-07-06T19:00:22;18.50;71.80
41944;DHT22;27636;52.610;13.244;2022-07-06T19:05:26;18.30;73.50
41944;DHT22;27636;52.610;13.244;2022-07-06T19:10:31;18.00;75.80
41944;DHT22;27636;52.610;13.244;2022-07-06T19:15:34;17.60;75.20
41944;DHT22;27636;52.610;13.244;2022-07-06T19:20:38;17.10;81.30
41944;DHT22;27636;52.610;13.244;2022-07-06T19:25:42;16.90;84.30
41944;DHT22;27636;52.610;13.244;2022-07-06T19:30:45;16.60;88.70
41944;DHT22;27636;52.610;13.244;2022-07-06T19:35:48;16.20;91.40
41944;DHT22;27636;52.610;13.244;2022-07-06T19:40:53;16.00;93.70
41944;DHT22;27636;52.610;13.244;2022-07-06T19:45:56;15.60;95.50
41944;DHT22;27636;52.610;13.244;2022-07-06T19:50:59;15.50;96.40
41944;DHT22;27636;52.610;13.244;2022-07-06T19:56:06;15.40;97.80
41944;DHT22;27636;52.610;13.244;2022-07-06T20:01:11;15.30;98.70
41944;DHT22;27636;52.610;13.244;2022-07-06T20:06:14;15.20;99.90
41944;DHT22;27636;52.610;13.244;2022-07-06T20:11:19;15.00;99.90
41944;DHT22;27636;52.610;13.244;2022-07-06T20:16:22;14.80;99.90
41944;DHT22;27636;52.610;13.244;2022-07-06T20:21:25;14.70;99.90
41944;DHT22;27636;52.610;13.244;2022-07-06T20:26:30;14.60;99.90
41944;DHT22;27636;52.610;13.244;2022-07-06T20:31:34;14.40;99.90
41944;DHT22;27636;52.610;13.244;2022-07-06T20:36:37;14.20;99.90
41944;DHT22;27636;52.610;13.244;2022-07-06T20:41:41;14.20;99.90
41944;DHT22;27636;52.610;13.244;2022-07-06T20:46:44;14.10;99.90
41944;DHT22;27636;52.610;13.244;2022-07-06T20:51:49;14.00;99.90
41944;DHT22;27636;52.610;13.244;2022-07-06T20:56:54;13.90;99.90
41944;DHT22;27636;52.610;13.244;2022-07-06T21:01:57;13.90;99.90
41944;DHT22;27636;52.610;13.244;2022-07-06T21:07:01;13.80;99.90
41944;DHT22;27636;52.610;13.244;2022-07-06T21:12:06;13.80;99.90
41944;DHT22;27636;52.610;13.244;2022-07-06T21:17:09;13.70;99.90
41944;DHT22;27636;52.610;13.244;2022-07-06T21:22:12;13.60;99.90
41944;DHT22;27636;52.610;13.244;2022-07-06T21:27:17;13.50;99.90
41944;DHT22;27636;52.610;13.244;2022-07-06T21:32:20;13.30;99.90
41944;DHT22;27636;52.610;13.244;2022-07-06T21:37:23;13.20;99.90
41944;DHT22;27636;52.610;13.244;2022-07-06T21:42:29;13.10;99.90
41944;DHT22;27636;52.610;13.244;2022-07-06T21:47:32;13.00;99.90
41944;DHT22;27636;52.610;13.244;2022-07-06T21:52:35;13.00;99.90
41944;DHT22;27636;52.610;13.244;2022-07-06T21:57:40;12.90;99.90
41944;DHT22;27636;52.610;13.244;2022-07-06T22:02:43;12.80;99.90
41944;DHT22;27636;52.610;13.244;2022-07-06T22:07:46;12.80;99.90
41944;DHT22;27636;52.610;13.244;2022-07-06T22:12:50;12.80;99.90
41944;DHT22;27636;52.610;13.244;2022-07-06T22:17:54;12.80;99.90
41944;DHT22;27636;52.610;13.244;2022-07-06T22:22:57;12.80;99.90
41944;DHT22;27636;52.610;13.244;2022-07-06T22:28:04;12.80;99.90
41944;DHT22;27636;52.610;13.244;2022-07-06T22:33:07;12.60;99.90
41944;DHT22;27636;52.610;13.244;2022-07-06T22:38:10;12.80;99.90
41944;DHT22;27636;52.610;13.244;2022-07-06T22:43:14;12.90;99.90
41944;DHT22;27636;52.610;13.244;2022-07-06T22:48:17;13.00;99.90
41944;DHT22;27636;52.610;13.244;2022-07-06T22:53:21;12.90;99.90
41944;DHT22;27636;52.610;13.244;2022-07-06T22:58:27;12.90;99.90
41944;DHT22;27636;52.610;13.244;2022-07-06T23:03:30;12.90;99.90
41944;DHT22;27636;52.610;13.244;2022-07-06T23:08:35;13.00;99.90
41944;DHT22;27636;52.610;13.244;2022-07-06T23:13:39;13.10;99.90
41944;DHT22;27636;52.610;13.244;2022-07-06T23:18:42;13.30;99.90
41944;DHT22;27636;52.610;13.244;2022-07-06T23:23:46;13.40;99.90
41944;DHT22;27636;52.610;13.244;2022-07-06T23:28:51;13.70;99.90
41944;DHT22;27636;52.610;13.244;2022-07-06T23:33:55;13.90;99.90
41944;DHT22;27636;52.610;13.244;2022-07-06T23:38:59;14.10;99.90
41944;DHT22;27636;52.610;13.244;2022-07-06T23:44:03;14.30;99.90
41944;DHT22;27636;52.610;13.244;2022-07-06T23:49:06;14.60;99.90
41944;DHT22;27636;52.610;13.244;2022-07-06T23:54:09;14.90;99.90
41944;DHT22;27636;52.610;13.244;2022-07-06T23:59:14;15.20;99.90
